Time;durP1;ratioP1;P1;durP2;ratioP2;P2;SDS_P1;SDS_P2;PMS_P1;PMS_P2;Temp;Humidity;BMP_temperature;BMP_pressure;BME280_temperature;BME280_humidity;BME280_pressure;Samples;Min_cycle;Max_cycle;Signal;HPM_P1;HPM_P2
2023/12/10 00:00:42;;;;;;;47.20;28.13;;;;;;;0.17;90.03;99779.53;5074805;28;20620;-60
2023/12/10 00:03:12;;;;;;;51.10;28.63;;;;;;;0.14;89.26;99772.69;5083520;28;20203;-63
2023/12/10 00:05:40;;;;;;;45.63;27.83;;;;;;;0.16;90.18;99771.06;5095735;28;20201;-64
2023/12/10 00:08:08;;;;;;;50.30;28.30;;;;;;;0.17;89.74;99777.84;5096045;28;20220;-61
2023/12/10 00:10:36;;;;;;;46.20;27.47;;;;;;;0.17;89.16;99779.53;5095278;28;20330;-63
2023/12/10 00:13:04;;;;;;;48.30;28.27;;;;;;;0.17;89.74;99780.38;5095113;28;20705;-62
2023/12/10 00:15:32;;;;;;;52.33;27.57;;;;;;;0.19;89.84;99772.84;5095465;28;20662;-64
2023/12/10 00:18:00;;;;;;;52.70;30.27;;;;;;;0.19;89.13;99775.38;5087747;28;20197;-62
2023/12/10 00:20:29;;;;;;;50.60;28.10;;;;;;;0.20;89.81;99772.03;5091620;28;20201;-61
2023/12/10 00:22:57;;;;;;;50.30;29.07;;;;;;;0.20;89.34;99762.75;5095046;28;20199;-64
2023/12/10 00:25:26;;;;;;;49.83;28.97;;;;;;;0.19;89.14;99766.09;5095474;28;20221;-60
2023/12/10 00:27:54;;;;;;;54.27;29.83;;;;;;;0.20;89.25;99761.88;5094938;28;20263;-60
2023/12/10 00:30:22;;;;;;;50.77;30.80;;;;;;;0.19;89.97;99755.97;5095122;28;20197;-61
2023/12/10 00:32:50;;;;;;;55.03;31.97;;;;;;;0.18;89.65;99753.38;5093621;28;20714;-60
2023/12/10 00:35:18;;;;;;;55.83;29.47;;;;;;;0.16;89.60;99739.81;5093764;28;20208;-61
2023/12/10 00:37:47;;;;;;;55.93;31.87;;;;;;;0.15;89.30;99753.31;5084205;28;20295;-60
2023/12/10 00:40:16;;;;;;;57.53;31.67;;;;;;;0.11;89.66;99749.84;5094451;28;20196;-61
2023/12/10 00:42:44;;;;;;;58.27;32.33;;;;;;;0.11;89.88;99749.84;5093641;28;20205;-60
2023/12/10 00:45:12;;;;;;;53.50;31.57;;;;;;;0.12;90.63;99755.78;5094662;28;20204;-60
2023/12/10 00:47:40;;;;;;;62.23;34.63;;;;;;;0.12;89.44;99763.38;5095287;28;20197;-61
2023/12/10 00:50:10;;;;;;;58.10;34.70;;;;;;;0.09;89.93;99760.75;5094978;28;20541;-64
2023/12/10 00:52:38;;;;;;;56.13;31.73;;;;;;;0.07;89.90;99757.31;5093066;28;20979;-64
2023/12/10 00:55:09;;;;;;;55.90;30.83;;;;;;;0.07;89.87;99765.75;5084067;28;20194;-62
2023/12/10 00:57:37;;;;;;;53.37;30.23;;;;;;;0.08;90.22;99779.31;5085743;28;20197;-65
2023/12/10 01:00:07;;;;;;;59.37;32.20;;;;;;;0.07;89.83;99775.03;5101607;28;20204;-61
2023/12/10 01:02:40;;;;;;;51.47;30.03;;;;;;;0.06;90.35;99778.41;5094386;28;20257;-65
2023/12/10 01:05:08;;;;;;;52.00;30.40;;;;;;;0.06;90.38;99780.94;5094130;28;20192;-64
2023/12/10 01:07:36;;;;;;;50.47;30.37;;;;;;;0.07;90.64;99780.97;5093932;28;20235;-62
2023/12/10 01:10:05;;;;;;;57.63;30.63;;;;;;;0.07;89.89;99783.50;5095258;28;20232;-63
2023/12/10 01:12:36;;;;;;;55.77;30.73;;;;;;;0.07;90.45;99775.03;5085673;28;20696;-62
2023/12/10 01:15:06;;;;;;;54.10;28.67;;;;;;;0.07;90.45;99775.91;5079490;28;20352;-62
2023/12/10 01:17:33;;;;;;;53.77;30.80;;;;;;;0.08;90.72;99776.78;5093673;28;20196;-64
2023/12/10 01:20:03;;;;;;;53.47;29.67;;;;;;;0.07;90.60;99775.91;5094974;28;20203;-63
2023/12/10 01:22:31;;;;;;;52.87;28.07;;;;;;;0.07;90.59;99780.09;5094639;28;20238;-63
2023/12/10 01:25:00;;;;;;;52.40;29.57;;;;;;;0.08;90.79;99779.31;5094166;28;20534;-62
2023/12/10 01:27:28;;;;;;;52.83;29.77;;;;;;;0.07;90.37;99775.03;5094139;28;20240;-63
2023/12/10 01:29:57;;;;;;;53.23;27.77;;;;;;;0.05;90.70;99769.94;5092947;28;20598;-60
2023/12/10 01:32:25;;;;;;;48.93;28.53;;;;;;;0.07;90.43;99765.75;5088797;28;20683;-61
2023/12/10 01:34:54;;;;;;;54.20;29.57;;;;;;;0.03;90.23;99761.44;5091125;28;20210;-61
2023/12/10 01:37:22;;;;;;;53.07;28.80;;;;;;;0.03;90.44;99763.13;5087243;28;20652;-61
2023/12/10 01:39:50;;;;;;;51.60;28.50;;;;;;;0.03;90.13;99760.59;5107111;28;20717;-62
2023/12/10 01:42:18;;;;;;;52.90;29.07;;;;;;;0.02;90.92;99756.34;5099120;28;20189;-60
2023/12/10 01:44:46;;;;;;;53.37;28.23;;;;;;;0.01;90.69;99759.69;5093869;28;20196;-61
2023/12/10 01:47:17;;;;;;;49.03;27.73;;;;;;;-0.03;90.58;99759.63;5091498;28;20262;-60
2023/12/10 01:49:46;;;;;;;50.33;27.47;;;;;;;-0.05;90.44;99771.38;5078882;28;20640;-62
2023/12/10 01:52:14;;;;;;;51.27;27.63;;;;;;;-0.05;90.88;99776.44;5086485;28;20211;-62
2023/12/10 01:54:42;;;;;;;47.47;25.80;;;;;;;-0.07;90.34;99772.16;5092493;28;20196;-61
2023/12/10 01:57:12;;;;;;;47.10;25.57;;;;;;;-0.07;90.33;99772.16;5087163;28;20290;-61
2023/12/10 01:59:40;;;;;;;48.33;26.83;;;;;;;-0.07;90.32;99773.03;5086373;28;20291;-61
2023/12/10 02:02:08;;;;;;;48.50;26.07;;;;;;;-0.08;90.71;99772.97;5093250;28;20189;-62
2023/12/10 02:04:37;;;;;;;49.93;26.10;;;;;;;-0.07;90.13;99769.63;5093439;28;20234;-60
2023/12/10 02:07:05;;;;;;;44.53;25.13;;;;;;;-0.06;90.31;99784.00;5093385;28;20555;-60
2023/12/10 02:09:33;;;;;;;48.73;25.57;;;;;;;-0.06;90.22;99774.72;5085735;28;20714;-60
2023/12/10 02:12:04;;;;;;;46.53;25.60;;;;;;;-0.06;90.76;99779.78;5091615;28;20300;-59
2023/12/10 02:14:32;;;;;;;49.93;25.77;;;;;;;-0.02;90.29;99775.66;5083059;28;20213;-60
2023/12/10 02:17:00;;;;;;;45.53;25.20;;;;;;;0.02;90.59;99771.53;5086813;28;20224;-59
2023/12/10 02:19:28;;;;;;;45.23;24.97;;;;;;;0.05;90.45;99776.69;5091162;28;20705;-60
2023/12/10 02:21:59;;;;;;;45.13;25.57;;;;;;;0.04;89.92;99780.03;5092544;28;20208;-60
2023/12/10 02:24:32;;;;;;;43.73;25.07;;;;;;;0.03;89.61;99769.03;5092831;28;20181;-60
2023/12/10 02:27:01;;;;;;;39.10;23.57;;;;;;;0.02;89.28;99769.00;5096311;28;23485;-61
2023/12/10 02:29:29;;;;;;;42.10;24.53;;;;;;;-0.01;88.92;99767.25;5084857;28;20200;-61
2023/12/10 02:31:57;;;;;;;45.90;23.93;;;;;;;0.01;89.36;99759.69;5091767;28;20204;-61
2023/12/10 02:34:25;;;;;;;43.50;24.47;;;;;;;0.03;89.37;99758.91;5082526;28;20239;-60
2023/12/10 02:36:53;;;;;;;41.40;23.80;;;;;;;0.02;89.07;99756.34;5094338;28;20249;-61
2023/12/10 02:39:21;;;;;;;47.13;24.20;;;;;;;0.04;89.01;99754.69;5092588;28;20283;-59
2023/12/10 02:41:49;;;;;;;42.50;23.63;;;;;;;0.04;88.52;99758.09;5092381;28;20250;-58
2023/12/10 02:44:19;;;;;;;38.30;22.33;;;;;;;0.03;88.69;99753.84;5092482;28;20630;-59
2023/12/10 02:46:48;;;;;;;42.60;23.40;;;;;;;0.03;88.20;99750.44;5088971;28;20318;-60
2023/12/10 02:49:17;;;;;;;42.73;23.07;;;;;;;-0.01;87.66;99740.25;5083678;28;20207;-58
2023/12/10 02:51:45;;;;;;;39.13;22.20;;;;;;;-0.05;88.33;99725.78;5085724;28;20209;-59
2023/12/10 02:54:13;;;;;;;38.00;21.87;;;;;;;-0.09;88.24;99723.13;5090380;28;20228;-59
2023/12/10 02:56:40;;;;;;;41.20;23.03;;;;;;;-0.13;88.12;99729.81;5090313;28;20204;-59
2023/12/10 02:59:08;;;;;;;37.70;21.07;;;;;;;-0.14;87.96;99728.09;5092220;28;20197;-59
2023/12/10 03:01:40;;;;;;;40.93;21.60;;;;;;;-0.16;88.05;99722.13;5092453;28;20275;-59
2023/12/10 03:04:08;;;;;;;41.40;21.00;;;;;;;-0.18;88.30;99722.91;5091041;28;20238;-58
2023/12/10 03:06:36;;;;;;;39.17;21.67;;;;;;;-0.19;87.88;99722.03;5078373;28;20557;-59
2023/12/10 03:09:05;;;;;;;38.53;21.57;;;;;;;-0.20;88.56;99715.25;5085264;28;20240;-60
2023/12/10 03:11:32;;;;;;;38.80;21.77;;;;;;;-0.22;87.57;99716.91;5092108;28;20544;-59
2023/12/10 03:14:00;;;;;;;38.37;20.17;;;;;;;-0.22;88.28;99716.03;5091578;28;20224;-58
2023/12/10 03:16:28;;;;;;;34.93;20.10;;;;;;;-0.23;88.46;99715.19;5092132;28;20223;-60
2023/12/10 03:18:57;;;;;;;35.13;19.87;;;;;;;-0.23;88.48;99711.78;5092348;28;20200;-59
2023/12/10 03:21:26;;;;;;;34.43;18.43;;;;;;;-0.24;88.19;99703.34;5091773;28;20188;-59
2023/12/10 03:23:53;;;;;;;32.80;19.10;;;;;;;-0.25;88.13;99706.69;5084692;28;20287;-59
2023/12/10 03:26:21;;;;;;;35.73;18.60;;;;;;;-0.28;87.83;99697.34;5083363;28;20193;-59
2023/12/10 03:28:49;;;;;;;33.17;18.63;;;;;;;-0.29;88.09;99699.84;5081087;28;20201;-58
2023/12/10 03:31:17;;;;;;;34.07;18.60;;;;;;;-0.29;88.07;99697.31;5092476;28;20219;-59
2023/12/10 03:33:45;;;;;;;36.87;19.17;;;;;;;-0.28;88.33;99706.63;5091602;28;20262;-60
2023/12/10 03:36:15;;;;;;;32.67;19.83;;;;;;;-0.27;88.47;99713.38;5091745;28;20572;-58
2023/12/10 03:38:43;;;;;;;32.60;18.67;;;;;;;-0.25;88.42;99704.16;5096813;28;20289;-60
2023/12/10 03:41:11;;;;;;;35.10;18.40;;;;;;;-0.23;88.08;99699.13;5095408;28;20217;-61
2023/12/10 03:43:39;;;;;;;33.47;18.97;;;;;;;-0.23;88.16;99683.94;5083328;28;20315;-61
2023/12/10 03:46:07;;;;;;;32.07;19.13;;;;;;;-0.24;87.51;99690.69;5094491;28;20212;-59
2023/12/10 03:48:35;;;;;;;30.97;17.17;;;;;;;-0.28;87.96;99677.09;5098337;28;20555;-59
2023/12/10 03:51:03;;;;;;;28.70;15.93;;;;;;;-0.29;87.79;99670.31;5096053;28;20552;-63
2023/12/10 03:53:32;;;;;;;32.60;18.73;;;;;;;-0.29;87.18;99669.47;5092281;28;20213;-60
2023/12/10 03:56:00;;;;;;;31.70;17.73;;;;;;;-0.31;87.93;99669.41;5092444;28;20208;-60
2023/12/10 03:58:28;;;;;;;28.77;15.53;;;;;;;-0.33;87.78;99670.19;5094764;28;20797;-61
2023/12/10 04:00:56;;;;;;;26.83;15.93;;;;;;;-0.34;87.08;99676.91;5090178;28;20251;-62
2023/12/10 04:03:24;;;;;;;30.17;16.87;;;;;;;-0.37;87.64;99678.50;5079225;28;20192;-61
2023/12/10 04:05:52;;;;;;;28.17;16.27;;;;;;;-0.37;87.17;99681.03;5084873;28;20612;-60
2023/12/10 04:08:21;;;;;;;28.97;16.13;;;;;;;-0.36;87.25;99682.78;5094585;28;20229;-63
2023/12/10 04:10:50;;;;;;;30.27;16.77;;;;;;;-0.37;87.59;99675.97;5095208;28;20232;-60
2023/12/10 04:13:18;;;;;;;28.00;16.50;;;;;;;-0.32;87.45;99682.91;5090289;28;20193;-60
2023/12/10 04:15:46;;;;;;;30.80;16.93;;;;;;;-0.31;87.34;99683.75;5095112;28;20200;-61
2023/12/10 04:18:15;;;;;;;30.63;16.67;;;;;;;-0.31;86.90;99683.75;5095547;28;20656;-61
2023/12/10 04:20:43;;;;;;;26.83;16.73;;;;;;;-0.33;87.11;99685.38;5086291;28;20200;-60
2023/12/10 04:23:12;;;;;;;32.13;16.97;;;;;;;-0.31;86.94;99686.28;5090598;28;20250;-62
2023/12/10 04:25:40;;;;;;;23.90;14.37;;;;;;;-0.30;87.42;99685.44;5095009;28;20664;-61
2023/12/10 04:28:09;;;;;;;25.43;15.23;;;;;;;-0.29;87.33;99699.84;5095348;28;20197;-60
2023/12/10 04:30:37;;;;;;;30.83;17.10;;;;;;;-0.28;86.48;99699.03;5094585;28;20200;-61
2023/12/10 04:33:05;;;;;;;27.77;16.07;;;;;;;-0.31;86.72;99696.41;5095359;28;20662;-61
2023/12/10 04:35:33;;;;;;;27.90;16.30;;;;;;;-0.36;86.94;99693.75;5095007;28;20209;-61
2023/12/10 04:38:01;;;;;;;27.60;16.87;;;;;;;-0.36;86.83;99691.22;5085697;28;20197;-59
2023/12/10 04:40:29;;;;;;;29.60;16.50;;;;;;;-0.35;86.79;99690.41;5085508;28;20193;-60
2023/12/10 04:42:57;;;;;;;24.40;15.23;;;;;;;-0.35;86.66;99697.16;5081520;28;20545;-61
2023/12/10 04:45:27;;;;;;;29.37;15.57;;;;;;;-0.35;86.68;99694.63;5094541;28;20652;-62
2023/12/10 04:47:55;;;;;;;27.10;15.93;;;;;;;-0.34;86.44;99689.56;5095173;28;20189;-62
2023/12/10 04:50:23;;;;;;;28.63;16.10;;;;;;;-0.35;86.56;99689.56;5094484;28;20191;-62
2023/12/10 04:52:50;;;;;;;24.67;14.63;;;;;;;-0.40;85.66;99691.97;5094509;28;20193;-60
2023/12/10 04:55:18;;;;;;;24.60;15.30;;;;;;;-0.43;85.95;99691.88;5090416;28;20233;-60
2023/12/10 04:57:46;;;;;;;26.83;15.50;;;;;;;-0.46;85.81;99684.19;5081108;28;20208;-62
2023/12/10 05:00:15;;;;;;;24.77;14.60;;;;;;;-0.45;86.14;99687.59;5092871;28;20192;-59
2023/12/10 05:02:45;;;;;;;27.47;15.43;;;;;;;-0.49;86.11;99697.63;5087805;28;20192;-61
2023/12/10 05:05:13;;;;;;;25.57;14.87;;;;;;;-0.52;86.23;99692.47;5092352;28;20215;-57
2023/12/10 05:07:41;;;;;;;23.93;14.27;;;;;;;-0.52;86.43;99689.09;5094946;28;20263;-57
2023/12/10 05:10:09;;;;;;;27.50;15.30;;;;;;;-0.55;86.26;99697.47;5095875;28;20232;-56
2023/12/10 05:12:37;;;;;;;25.73;15.33;;;;;;;-0.53;86.62;99695.81;5090108;28;20201;-57
2023/12/10 05:15:06;;;;;;;25.57;14.57;;;;;;;-0.53;86.60;99700.88;5089019;28;20220;-59
2023/12/10 05:17:34;;;;;;;26.10;14.87;;;;;;;-0.55;86.00;99692.41;5094476;28;20560;-56
2023/12/10 05:20:05;;;;;;;28.60;15.23;;;;;;;-0.55;86.72;99691.56;5094472;28;20220;-61
2023/12/10 05:22:33;;;;;;;25.00;15.07;;;;;;;-0.55;86.83;99692.41;5094620;28;20189;-57
2023/12/10 05:25:03;;;;;;;26.20;15.00;;;;;;;-0.54;86.90;99698.31;5094223;28;20257;-57
2023/12/10 05:27:32;;;;;;;25.57;13.83;;;;;;;-0.52;86.60;99695.00;5094052;28;20224;-58
2023/12/10 05:30:01;;;;;;;25.27;14.37;;;;;;;-0.53;85.86;99695.81;5086309;28;20212;-59
2023/12/10 05:32:29;;;;;;;24.97;14.50;;;;;;;-0.53;86.39;99695.81;5081588;28;20651;-58
2023/12/10 05:34:57;;;;;;;23.80;14.20;;;;;;;-0.53;86.08;99705.94;5088249;28;20213;-58
2023/12/10 05:37:26;;;;;;;23.87;15.00;;;;;;;-0.52;86.52;99709.34;5090890;28;20197;-55
2023/12/10 05:39:54;;;;;;;22.50;13.50;;;;;;;-0.57;85.40;99704.16;5094292;28;20604;-58
2023/12/10 05:42:23;;;;;;;24.07;14.03;;;;;;;-0.63;85.04;99701.44;5094244;28;20656;-58
2023/12/10 05:44:50;;;;;;;24.30;14.10;;;;;;;-0.68;85.48;99708.06;5094079;28;20292;-58
2023/12/10 05:47:18;;;;;;;23.93;14.83;;;;;;;-0.71;85.99;99704.59;5090809;28;20655;-56
2023/12/10 05:49:46;;;;;;;25.10;15.00;;;;;;;-0.71;86.24;99707.97;5087453;28;20585;-58
2023/12/10 05:52:15;;;;;;;27.67;15.17;;;;;;;-0.71;86.19;99712.19;5088067;28;20201;-58
2023/12/10 05:54:44;;;;;;;26.83;16.67;;;;;;;-0.71;85.90;99720.63;5091776;28;20299;-63
2023/12/10 05:57:13;;;;;;;29.00;15.73;;;;;;;-0.76;86.11;99722.16;5093124;28;20201;-63
2023/12/10 05:59:41;;;;;;;26.60;15.27;;;;;;;-0.77;86.67;99735.63;5093639;28;20605;-55
2023/12/10 06:02:08;;;;;;;25.80;14.83;;;;;;;-0.79;86.70;99737.25;5093950;28;20571;-57
2023/12/10 06:04:36;;;;;;;26.67;15.00;;;;;;;-0.84;86.59;99726.16;5084623;28;20196;-58
2023/12/10 06:07:05;;;;;;;20.83;13.87;;;;;;;-0.86;86.39;99745.47;5089923;28;20570;-57
2023/12/10 06:09:32;;;;;;;23.17;13.23;;;;;;;-0.89;85.97;99740.31;5089208;28;20259;-58
2023/12/10 06:12:02;;;;;;;23.97;13.57;;;;;;;-0.94;85.74;99750.31;5093544;28;20255;-58
2023/12/10 06:14:30;;;;;;;26.27;13.33;;;;;;;-1.00;86.04;99758.56;5093436;28;20245;-57
2023/12/10 06:16:58;;;;;;;22.03;12.67;;;;;;;-1.02;86.33;99751.75;5093712;28;20643;-56
2023/12/10 06:19:26;;;;;;;25.77;14.27;;;;;;;-1.04;86.23;99749.16;5093317;28;20192;-57
2023/12/10 06:21:54;;;;;;;23.50;14.53;;;;;;;-1.03;86.76;99757.59;5087920;28;20758;-59
2023/12/10 06:24:22;;;;;;;22.97;13.13;;;;;;;-1.01;86.64;99768.63;5092698;28;20200;-58
2023/12/10 06:26:50;;;;;;;24.73;14.93;;;;;;;-1.00;86.82;99773.72;5087493;28;20201;-59
2023/12/10 06:29:19;;;;;;;24.07;13.33;;;;;;;-0.97;86.90;99783.94;5088088;28;20232;-58
2023/12/10 06:31:47;;;;;;;24.87;14.10;;;;;;;-0.93;86.75;99784.03;5093027;28;20188;-58
2023/12/10 06:34:15;;;;;;;24.83;13.53;;;;;;;-0.94;86.60;99782.31;5092466;28;20189;-58
2023/12/10 06:36:43;;;;;;;24.33;14.80;;;;;;;-0.94;86.71;99779.81;5093038;28;20226;-56
2023/12/10 06:39:11;;;;;;;25.80;15.37;;;;;;;-0.95;85.93;99781.47;5089139;28;20598;-58
2023/12/10 06:41:39;;;;;;;23.50;14.03;;;;;;;-1.02;86.53;99772.00;5092059;28;20575;-57
2023/12/10 06:44:09;;;;;;;29.70;14.53;;;;;;;-1.07;86.46;99765.91;5089841;28;20303;-57
2023/12/10 06:46:38;;;;;;;23.93;13.97;;;;;;;-1.14;86.85;99759.84;5087481;28;20244;-61
2023/12/10 06:49:06;;;;;;;27.73;14.90;;;;;;;-1.16;87.09;99775.75;5088218;28;20201;-57
2023/12/10 06:51:34;;;;;;;30.20;16.00;;;;;;;-1.17;87.39;99774.91;5092656;28;20203;-57
2023/12/10 06:54:02;;;;;;;27.07;14.57;;;;;;;-1.12;87.84;99775.03;5092825;28;20254;-58
2023/12/10 06:56:33;;;;;;;25.97;15.23;;;;;;;-1.10;87.76;99761.63;5084000;28;20213;-56
2023/12/10 06:59:01;;;;;;;30.20;16.13;;;;;;;-1.06;87.52;99763.44;5091600;28;20220;-58
2023/12/10 07:01:28;;;;;;;27.20;15.57;;;;;;;-1.07;87.35;99768.44;5088476;28;20852;-62
2023/12/10 07:04:00;;;;;;;30.63;15.93;;;;;;;-1.03;87.68;99777.84;5085553;28;20307;-58
2023/12/10 07:06:28;;;;;;;27.27;14.50;;;;;;;-1.02;87.60;99777.03;5089994;28;20196;-58
2023/12/10 07:08:56;;;;;;;22.57;13.50;;;;;;;-1.01;87.22;99786.34;5092221;28;20344;-64
2023/12/10 07:11:24;;;;;;;29.17;16.83;;;;;;;-1.05;86.58;99774.41;5092410;28;20200;-58
2023/12/10 07:13:53;;;;;;;28.33;16.53;;;;;;;-1.09;86.34;99777.66;5088916;28;20212;-59
2023/12/10 07:16:21;;;;;;;27.40;15.10;;;;;;;-1.15;86.94;99780.84;5095216;28;20216;-59
2023/12/10 07:18:49;;;;;;;29.27;15.97;;;;;;;-1.17;86.73;99776.56;5090031;28;20215;-58
2023/12/10 07:21:18;;;;;;;29.63;16.53;;;;;;;-1.17;87.34;99782.50;5086360;28;20255;-57
2023/12/10 07:23:46;;;;;;;33.93;18.07;;;;;;;-1.17;87.05;99782.50;5090207;28;20594;-62
2023/12/10 07:26:16;;;;;;;30.40;16.07;;;;;;;-1.17;87.46;99774.91;5091864;28;20193;-57
2023/12/10 07:28:44;;;;;;;34.03;16.83;;;;;;;-1.13;86.93;99789.34;5091148;28;20601;-58
2023/12/10 07:31:12;;;;;;;31.13;16.00;;;;;;;-1.14;86.96;99780.06;5083108;28;20303;-58
2023/12/10 07:33:39;;;;;;;27.70;15.53;;;;;;;-1.14;87.27;99790.16;5091073;28;20212;-57
2023/12/10 07:36:09;;;;;;;29.17;14.87;;;;;;;-1.14;87.34;99794.34;5090835;28;20204;-56
2023/12/10 07:38:38;;;;;;;28.60;16.77;;;;;;;-1.14;87.03;99789.28;5090673;28;20569;-57
2023/12/10 07:41:06;;;;;;;28.77;16.13;;;;;;;-1.15;87.11;99797.69;5082827;28;20288;-59
2023/12/10 07:43:34;;;;;;;29.03;16.13;;;;;;;-1.11;87.27;99800.34;5085023;28;20197;-57
2023/12/10 07:46:02;;;;;;;28.73;16.43;;;;;;;-1.07;87.48;99798.78;5079538;28;20208;-58
2023/12/10 07:48:30;;;;;;;27.90;15.20;;;;;;;-0.99;87.77;99808.34;5081127;28;20222;-58
2023/12/10 07:50:59;;;;;;;29.10;16.27;;;;;;;-0.89;87.41;99808.59;5088144;28;20219;-57
2023/12/10 07:53:26;;;;;;;27.43;15.93;;;;;;;-0.82;87.13;99818.94;5099988;28;20211;-59
2023/12/10 07:55:56;;;;;;;27.60;15.37;;;;;;;-0.78;86.38;99813.16;5101693;28;20273;-59
2023/12/10 07:58:24;;;;;;;30.10;16.73;;;;;;;-0.75;86.81;99804.81;5079911;28;20200;-59
2023/12/10 08:00:52;;;;;;;33.37;17.67;;;;;;;-0.74;85.21;99801.47;5082990;28;20205;-58
2023/12/10 08:03:20;;;;;;;31.13;16.50;;;;;;;-0.73;85.71;99816.72;5081243;28;20197;-61
2023/12/10 08:05:48;;;;;;;32.20;16.30;;;;;;;-0.75;85.37;99815.78;5084590;28;20221;-62
2023/12/10 08:08:16;;;;;;;30.47;16.43;;;;;;;-0.74;85.54;99826.78;5081883;28;20679;-58
2023/12/10 08:10:46;;;;;;;30.17;16.43;;;;;;;-0.69;85.80;99820.19;5080761;28;20236;-63
2023/12/10 08:13:16;;;;;;;30.03;16.40;;;;;;;-0.65;85.01;99837.19;5090601;28;20193;-56
2023/12/10 08:15:44;;;;;;;29.17;16.77;;;;;;;-0.61;85.07;99833.06;5090264;28;20212;-59
2023/12/10 08:18:12;;;;;;;28.90;16.40;;;;;;;-0.60;84.77;99830.56;5091447;28;20201;-55
2023/12/10 08:20:40;;;;;;;30.80;16.50;;;;;;;-0.57;84.50;99825.59;5080538;28;20216;-58
2023/12/10 08:23:08;;;;;;;33.17;18.13;;;;;;;-0.56;83.94;99831.53;5094974;28;20224;-60
2023/12/10 08:25:36;;;;;;;30.90;17.43;;;;;;;-0.59;83.74;99829.78;5093288;28;20198;-59
2023/12/10 08:28:04;;;;;;;33.77;18.70;;;;;;;-0.59;84.14;99837.38;5079950;28;20203;-59
2023/12/10 08:30:34;;;;;;;36.33;18.10;;;;;;;-0.60;83.55;99825.50;5082152;28;20205;-58
2023/12/10 08:33:02;;;;;;;29.77;17.67;;;;;;;-0.61;83.32;99828.88;5088836;28;20265;-60
2023/12/10 08:35:31;;;;;;;36.70;18.27;;;;;;;-0.66;83.18;99825.34;5094808;28;20212;-58
2023/12/10 08:37:59;;;;;;;32.60;18.17;;;;;;;-0.64;83.65;99812.72;5093564;28;20244;-58
2023/12/10 08:40:27;;;;;;;37.60;19.60;;;;;;;-0.64;83.04;99821.19;5108308;28;20683;-61
2023/12/10 08:42:55;;;;;;;34.50;19.90;;;;;;;-0.64;83.23;99802.63;5093972;28;20185;-57
2023/12/10 08:45:23;;;;;;;31.50;18.77;;;;;;;-0.61;83.02;99818.75;5091221;28;20690;-58
2023/12/10 08:47:52;;;;;;;35.13;19.40;;;;;;;-0.59;82.88;99817.13;5081575;28;20211;-60
2023/12/10 08:50:21;;;;;;;34.63;19.07;;;;;;;-0.55;82.52;99811.34;5088621;28;20231;-56
2023/12/10 08:52:49;;;;;;;33.97;19.80;;;;;;;-0.52;83.21;99805.50;5089853;28;20207;-59
2023/12/10 08:55:17;;;;;;;37.63;20.37;;;;;;;-0.50;81.97;99789.53;5081999;28;20200;-57
2023/12/10 08:57:45;;;;;;;38.20;19.10;;;;;;;-0.46;81.35;99794.69;5089134;28;20320;-58
2023/12/10 09:00:15;;;;;;;37.03;20.03;;;;;;;-0.47;81.86;99791.31;5089483;28;20304;-58
2023/12/10 09:02:42;;;;;;;33.47;18.70;;;;;;;-0.44;81.98;99803.19;5091380;28;20254;-58
2023/12/10 09:05:12;;;;;;;34.67;19.17;;;;;;;-0.38;82.15;99803.38;5084245;28;20250;-59
2023/12/10 09:07:40;;;;;;;31.07;19.00;;;;;;;-0.26;81.92;99798.63;5091717;28;20200;-61
2023/12/10 09:10:08;;;;;;;37.20;18.83;;;;;;;-0.17;81.27;99805.66;5094041;28;20228;-58
2023/12/10 09:12:40;;;;;;;33.53;17.97;;;;;;;-0.10;81.31;99805.84;5085789;28;20201;-60
2023/12/10 09:15:09;;;;;;;32.67;19.73;;;;;;;-0.02;80.37;99811.13;5093259;28;20242;-64
2023/12/10 10:47:23;;;;;;;35.10;20.13;;;;;;;0.02;79.24;99774.06;5105488;27;20349;-57
2023/12/10 10:49:55;;;;;;;36.17;20.30;;;;;;;0.01;79.90;99772.38;5087090;28;20200;-61
2023/12/10 10:52:44;;;;;;;39.87;20.67;;;;;;;-0.06;79.56;99767.13;5092079;28;20754;-62
2023/12/10 10:55:13;;;;;;;34.90;19.33;;;;;;;-0.05;80.07;99765.44;5070746;28;20197;-62
2023/12/10 10:57:41;;;;;;;37.47;21.27;;;;;;;-0.06;80.65;99771.34;5085995;28;20197;-63
2023/12/10 11:00:34;;;;;;;34.83;20.77;;;;;;;-0.07;79.96;99765.41;5089793;28;20204;-59
2023/12/10 11:03:07;;;;;;;36.57;19.97;;;;;;;-0.06;80.43;99771.34;5075425;28;20213;-57
2023/12/10 11:05:37;;;;;;;34.07;19.47;;;;;;;-0.04;80.83;99778.16;5089077;28;20213;-61
2023/12/10 11:08:05;;;;;;;39.80;21.50;;;;;;;0.03;80.44;99783.38;5077257;28;20683;-65
2023/12/10 11:10:34;;;;;;;36.60;20.33;;;;;;;0.08;81.22;99776.78;5089728;28;20193;-61
2023/12/10 11:13:02;;;;;;;34.73;20.50;;;;;;;0.16;80.29;99771.06;5084330;28;20197;-64
2023/12/10 11:15:31;;;;;;;36.73;21.20;;;;;;;0.26;80.90;99773.84;5085888;28;20200;-62
2023/12/10 11:18:00;;;;;;;35.90;21.27;;;;;;;0.34;80.35;99769.84;5080206;28;20657;-65
2023/12/10 11:20:31;;;;;;;33.53;19.37;;;;;;;0.35;79.74;99772.41;5099316;28;20655;-68
2023/12/10 11:22:59;;;;;;;35.67;20.03;;;;;;;0.36;79.23;99784.25;5089453;28;20193;-64
2023/12/10 11:25:28;;;;;;;34.60;20.40;;;;;;;0.39;79.71;99779.25;5089839;28;20691;-65
2023/12/10 11:27:57;;;;;;;37.73;20.70;;;;;;;0.42;78.37;99792.00;5102466;28;20228;-64
2023/12/10 11:30:25;;;;;;;38.37;20.90;;;;;;;0.42;79.07;99784.41;5109778;28;20188;-62
2023/12/10 11:32:53;;;;;;;34.40;20.43;;;;;;;0.46;78.98;99790.41;5095306;28;20213;-62
2023/12/10 11:35:21;;;;;;;35.33;19.30;;;;;;;0.44;79.09;99786.97;5083693;28;20228;-65
2023/12/10 11:37:50;;;;;;;37.67;21.37;;;;;;;0.40;78.70;99790.25;5068772;28;20201;-65
2023/12/10 11:40:18;;;;;;;36.93;21.97;;;;;;;0.39;78.64;99794.47;5068939;28;20192;-64
2023/12/10 11:42:46;;;;;;;36.30;19.63;;;;;;;0.35;78.62;99802.81;5068681;28;20259;-65
2023/12/10 11:45:15;;;;;;;38.07;21.13;;;;;;;0.35;78.97;99796.88;5068871;28;20237;-64
2023/12/10 11:47:44;;;;;;;38.03;21.07;;;;;;;0.34;78.69;99803.63;5079789;28;20695;-65
2023/12/10 11:50:14;;;;;;;34.20;19.80;;;;;;;0.36;78.85;99796.91;5097447;28;20198;-66
2023/12/10 11:52:42;;;;;;;37.73;21.13;;;;;;;0.36;79.14;99796.91;5089384;28;20231;-66
2023/12/10 11:55:12;;;;;;;33.47;19.90;;;;;;;0.37;79.24;99801.19;5088756;28;20197;-64
2023/12/10 11:57:43;;;;;;;37.03;21.13;;;;;;;0.39;78.83;99798.69;5079889;28;20193;-60
2023/12/10 12:00:12;;;;;;;34.50;19.77;;;;;;;0.40;78.86;99796.16;5075484;28;20243;-60
2023/12/10 12:02:42;;;;;;;34.00;20.07;;;;;;;0.41;79.14;99800.44;5075434;28;20284;-62
2023/12/10 12:05:11;;;;;;;29.80;18.67;;;;;;;0.44;79.26;99792.91;5067642;28;20292;-63
2023/12/10 12:07:42;;;;;;;31.87;19.00;;;;;;;0.45;78.18;99799.69;5063615;28;20566;-62
2023/12/10 12:10:13;;;;;;;34.67;20.73;;;;;;;0.39;78.31;99794.47;5069856;28;20208;-64
2023/12/10 12:12:42;;;;;;;30.73;18.50;;;;;;;0.38;78.84;99802.03;5095472;28;20222;-63
2023/12/10 12:15:11;;;;;;;32.37;17.67;;;;;;;0.39;79.06;99794.47;5078634;28;20236;-57
2023/12/10 12:17:40;;;;;;;32.97;19.70;;;;;;;0.39;79.20;99798.69;5064429;28;20653;-60
2023/12/10 12:20:15;;;;;;;32.90;19.33;;;;;;;0.38;78.98;99802.91;5075121;28;20205;-60
2023/12/10 12:22:43;;;;;;;35.67;18.23;;;;;;;0.35;79.06;99802.81;5075035;28;20194;-61
2023/12/10 12:25:17;;;;;;;32.40;19.23;;;;;;;0.32;79.27;99791.75;5069090;28;20206;-61
2023/12/10 12:27:45;;;;;;;33.03;19.10;;;;;;;0.30;79.13;99794.25;5062281;28;20249;-61
2023/12/10 12:30:15;;;;;;;32.90;18.90;;;;;;;0.26;78.93;99792.44;5079309;28;20205;-60
2023/12/10 12:32:42;;;;;;;36.40;19.73;;;;;;;0.23;79.21;99789.84;5072751;28;20189;-61
2023/12/10 12:35:10;;;;;;;33.57;19.30;;;;;;;0.23;79.57;99787.31;5070137;28;20205;-61
2023/12/10 12:37:38;;;;;;;32.50;18.10;;;;;;;0.22;79.96;99788.09;5054597;28;20237;-62
2023/12/10 12:40:08;;;;;;;30.20;18.57;;;;;;;0.22;79.27;99786.44;5054588;28;20190;-61
2023/12/10 12:42:37;;;;;;;33.53;18.00;;;;;;;0.21;79.73;99783.84;5054814;28;20621;-61
2023/12/10 12:45:07;;;;;;;31.97;19.13;;;;;;;0.19;79.94;99785.50;5054286;28;20323;-61
2023/12/10 12:47:34;;;;;;;32.40;18.13;;;;;;;0.16;80.02;99776.16;5052610;28;20240;-62
2023/12/10 12:50:03;;;;;;;34.17;18.13;;;;;;;0.13;79.87;99775.22;5065164;28;20692;-60
2023/12/10 12:52:31;;;;;;;31.83;18.13;;;;;;;0.12;80.57;99778.56;5063246;28;20736;-61
2023/12/10 12:54:59;;;;;;;33.20;17.63;;;;;;;0.11;80.08;99771.75;5074403;28;20209;-65